sensor_id;sensor_type;location;lat;lon;timestamp;temperature;humidity
52211;DHT22;38179;52.756;6.906;2023-04-30T00:01:28;7.50;99.90
52211;DHT22;38179;52.756;6.906;2023-04-30T00:03:54;7.50;99.90
52211;DHT22;38179;52.756;6.906;2023-04-30T00:06:20;7.50;99.90
52211;DHT22;38179;52.756;6.906;2023-04-30T00:08:46;7.40;99.90
52211;DHT22;38179;52.756;6.906;2023-04-30T00:11:11;7.40;99.90
52211;DHT22;38179;52.756;6.906;2023-04-30T00:13:37;7.40;99.90
52211;DHT22;38179;52.756;6.906;2023-04-30T00:16:03;7.40;99.90
52211;DHT22;38179;52.756;6.906;2023-04-30T00:18:29;7.30;99.90
52211;DHT22;38179;52.756;6.906;2023-04-30T00:20:55;7.40;99.90
52211;DHT22;38179;52.756;6.906;2023-04-30T00:23:20;7.40;99.90
52211;DHT22;38179;52.756;6.906;2023-04-30T00:25:46;7.40;99.90
52211;DHT22;38179;52.756;6.906;2023-04-30T00:28:12;7.30;99.90
52211;DHT22;38179;52.756;6.906;2023-04-30T00:30:38;7.30;99.90
52211;DHT22;38179;52.756;6.906;2023-04-30T00:33:03;7.30;99.90
52211;DHT22;38179;52.756;6.906;2023-04-30T00:35:30;7.20;99.90
52211;DHT22;38179;52.756;6.906;2023-04-30T00:37:55;7.20;99.90
52211;DHT22;38179;52.756;6.906;2023-04-30T00:40:21;7.20;99.90
52211;DHT22;38179;52.756;6.906;2023-04-30T00:42:47;7.20;99.90
52211;DHT22;38179;52.756;6.906;2023-04-30T00:45:13;7.20;99.90
52211;DHT22;38179;52.756;6.906;2023-04-30T00:47:39;7.10;99.90
52211;DHT22;38179;52.756;6.906;2023-04-30T00:50:05;7.10;99.90
52211;DHT22;38179;52.756;6.906;2023-04-30T00:52:31;6.90;99.90
52211;DHT22;38179;52.756;6.906;2023-04-30T00:54:57;6.90;99.90
52211;DHT22;38179;52.756;6.906;2023-04-30T00:57:22;6.80;99.90
52211;DHT22;38179;52.756;6.906;2023-04-30T00:59:49;6.70;99.90
52211;DHT22;38179;52.756;6.906;2023-04-30T01:02:15;6.60;99.90
52211;DHT22;38179;52.756;6.906;2023-04-30T01:04:42;6.60;99.90
52211;DHT22;38179;52.756;6.906;2023-04-30T01:07:08;6.40;99.90
52211;DHT22;38179;52.756;6.906;2023-04-30T01:09:33;6.40;99.90
52211;DHT22;38179;52.756;6.906;2023-04-30T01:14:40;6.30;99.90
52211;DHT22;38179;52.756;6.906;2023-04-30T01:17:28;6.30;99.90
52211;DHT22;38179;52.756;6.906;2023-04-30T01:19:56;6.40;99.90
52211;DHT22;38179;52.756;6.906;2023-04-30T01:30:10;6.50;99.90
52211;DHT22;38179;52.756;6.906;2023-04-30T01:32:36;6.60;99.90
52211;DHT22;38179;52.756;6.906;2023-04-30T01:35:02;6.50;99.90
52211;DHT22;38179;52.756;6.906;2023-04-30T01:37:32;6.50;99.90
52211;DHT22;38179;52.756;6.906;2023-04-30T01:53:12;6.50;99.90
52211;DHT22;38179;52.756;6.906;2023-04-30T01:55:49;6.50;99.90
52211;DHT22;38179;52.756;6.906;2023-04-30T01:58:16;6.40;99.90
52211;DHT22;38179;52.756;6.906;2023-04-30T02:00:42;6.50;99.90
52211;DHT22;38179;52.756;6.906;2023-04-30T02:03:08;6.50;99.90
52211;DHT22;38179;52.756;6.906;2023-04-30T02:05:33;6.50;99.90
52211;DHT22;38179;52.756;6.906;2023-04-30T02:07:59;6.50;99.90
52211;DHT22;38179;52.756;6.906;2023-04-30T02:10:25;6.40;99.90
52211;DHT22;38179;52.756;6.906;2023-04-30T02:12:51;6.30;99.90
52211;DHT22;38179;52.756;6.906;2023-04-30T02:15:17;6.10;99.90
52211;DHT22;38179;52.756;6.906;2023-04-30T02:17:43;6.00;99.90
52211;DHT22;38179;52.756;6.906;2023-04-30T02:20:09;6.00;99.90
52211;DHT22;38179;52.756;6.906;2023-04-30T02:22:35;5.90;99.90
52211;DHT22;38179;52.756;6.906;2023-04-30T02:25:01;5.90;99.90
52211;DHT22;38179;52.756;6.906;2023-04-30T02:27:28;5.70;99.90
52211;DHT22;38179;52.756;6.906;2023-04-30T02:29:54;5.60;99.90
52211;DHT22;38179;52.756;6.906;2023-04-30T02:32:20;5.60;99.90
52211;DHT22;38179;52.756;6.906;2023-04-30T02:34:46;5.60;99.90
52211;DHT22;38179;52.756;6.906;2023-04-30T02:37:12;5.60;99.90
52211;DHT22;38179;52.756;6.906;2023-04-30T02:39:38;5.60;99.90
52211;DHT22;38179;52.756;6.906;2023-04-30T02:42:03;5.50;99.90
52211;DHT22;38179;52.756;6.906;2023-04-30T02:44:31;5.60;99.90
52211;DHT22;38179;52.756;6.906;2023-04-30T02:46:56;5.60;99.90
52211;DHT22;38179;52.756;6.906;2023-04-30T02:49:22;5.60;99.90
52211;DHT22;38179;52.756;6.906;2023-04-30T02:51:48;5.60;99.90
52211;DHT22;38179;52.756;6.906;2023-04-30T02:54:14;5.60;99.90
52211;DHT22;38179;52.756;6.906;2023-04-30T02:56:39;5.60;99.90
52211;DHT22;38179;52.756;6.906;2023-04-30T02:59:06;5.50;99.90
52211;DHT22;38179;52.756;6.906;2023-04-30T03:01:31;5.30;99.90
52211;DHT22;38179;52.756;6.906;2023-04-30T03:03:57;5.20;99.90
52211;DHT22;38179;52.756;6.906;2023-04-30T03:06:23;5.20;99.90
52211;DHT22;38179;52.756;6.906;2023-04-30T03:08:49;5.20;99.90
52211;DHT22;38179;52.756;6.906;2023-04-30T03:11:15;5.20;99.90
52211;DHT22;38179;52.756;6.906;2023-04-30T03:13:42;5.20;99.90
52211;DHT22;38179;52.756;6.906;2023-04-30T03:16:08;5.20;99.90
52211;DHT22;38179;52.756;6.906;2023-04-30T03:18:34;5.20;99.90
52211;DHT22;38179;52.756;6.906;2023-04-30T03:21:00;5.20;99.90
52211;DHT22;38179;52.756;6.906;2023-04-30T03:23:26;5.20;99.90
52211;DHT22;38179;52.756;6.906;2023-04-30T03:25:52;5.30;99.90
52211;DHT22;38179;52.756;6.906;2023-04-30T03:28:18;5.40;99.90
52211;DHT22;38179;52.756;6.906;2023-04-30T03:30:44;5.50;99.90
52211;DHT22;38179;52.756;6.906;2023-04-30T03:33:09;5.50;99.90
52211;DHT22;38179;52.756;6.906;2023-04-30T03:35:35;5.60;99.90
52211;DHT22;38179;52.756;6.906;2023-04-30T03:38:01;5.60;99.90
52211;DHT22;38179;52.756;6.906;2023-04-30T03:40:27;5.50;99.90
52211;DHT22;38179;52.756;6.906;2023-04-30T03:42:52;5.50;99.90
52211;DHT22;38179;52.756;6.906;2023-04-30T03:45:18;5.40;99.90
52211;DHT22;38179;52.756;6.906;2023-04-30T03:47:44;5.40;99.90
52211;DHT22;38179;52.756;6.906;2023-04-30T03:50:10;5.30;99.90
52211;DHT22;38179;52.756;6.906;2023-04-30T03:52:36;5.20;99.90
52211;DHT22;38179;52.756;6.906;2023-04-30T03:55:02;5.10;99.90
52211;DHT22;38179;52.756;6.906;2023-04-30T03:57:28;5.10;99.90
52211;DHT22;38179;52.756;6.906;2023-04-30T03:59:53;5.20;99.90
52211;DHT22;38179;52.756;6.906;2023-04-30T04:02:19;5.30;99.90
52211;DHT22;38179;52.756;6.906;2023-04-30T04:04:46;5.30;99.90
52211;DHT22;38179;52.756;6.906;2023-04-30T04:07:11;5.40;99.90
52211;DHT22;38179;52.756;6.906;2023-04-30T04:09:37;5.40;99.90
52211;DHT22;38179;52.756;6.906;2023-04-30T04:12:03;5.40;99.90
52211;DHT22;38179;52.756;6.906;2023-04-30T04:14:29;5.40;99.90
52211;DHT22;38179;52.756;6.906;2023-04-30T04:16:55;5.40;99.90
52211;DHT22;38179;52.756;6.906;2023-04-30T04:19:22;5.40;99.90
52211;DHT22;38179;52.756;6.906;2023-04-30T04:21:48;5.40;99.90
52211;DHT22;38179;52.756;6.906;2023-04-30T04:24:14;5.40;99.90
52211;DHT22;38179;52.756;6.906;2023-04-30T04:26:39;5.40;99.90
52211;DHT22;38179;52.756;6.906;2023-04-30T04:29:05;5.40;99.90
52211;DHT22;38179;52.756;6.906;2023-04-30T04:31:33;5.40;99.90
52211;DHT22;38179;52.756;6.906;2023-04-30T04:34:00;5.40;99.90
52211;DHT22;38179;52.756;6.906;2023-04-30T04:36:26;5.40;99.90
52211;DHT22;38179;52.756;6.906;2023-04-30T04:38:53;5.40;99.90
52211;DHT22;38179;52.756;6.906;2023-04-30T04:41:19;5.50;99.90
52211;DHT22;38179;52.756;6.906;2023-04-30T04:43:45;5.50;99.90
52211;DHT22;38179;52.756;6.906;2023-04-30T04:46:11;5.60;99.90
52211;DHT22;38179;52.756;6.906;2023-04-30T04:48:36;5.70;99.90
52211;DHT22;38179;52.756;6.906;2023-04-30T04:51:02;5.70;99.90
52211;DHT22;38179;52.756;6.906;2023-04-30T04:53:28;5.70;99.90
52211;DHT22;38179;52.756;6.906;2023-04-30T04:55:54;5.80;99.90
52211;DHT22;38179;52.756;6.906;2023-04-30T04:58:20;5.80;99.90
52211;DHT22;38179;52.756;6.906;2023-04-30T05:00:45;5.90;99.90
52211;DHT22;38179;52.756;6.906;2023-04-30T05:03:11;5.90;99.90
52211;DHT22;38179;52.756;6.906;2023-04-30T05:05:38;6.00;99.90
52211;DHT22;38179;52.756;6.906;2023-04-30T05:08:04;6.00;99.90
52211;DHT22;38179;52.756;6.906;2023-04-30T05:10:30;6.10;99.90
52211;DHT22;38179;52.756;6.906;2023-04-30T05:12:56;6.10;99.90
52211;DHT22;38179;52.756;6.906;2023-04-30T05:15:22;6.20;99.90
52211;DHT22;38179;52.756;6.906;2023-04-30T05:17:47;6.30;99.90
52211;DHT22;38179;52.756;6.906;2023-04-30T05:20:13;6.30;99.90
52211;DHT22;38179;52.756;6.906;2023-04-30T05:22:39;6.40;99.90
52211;DHT22;38179;52.756;6.906;2023-04-30T05:25:05;6.40;99.90
52211;DHT22;38179;52.756;6.906;2023-04-30T05:27:31;6.40;99.90
52211;DHT22;38179;52.756;6.906;2023-04-30T05:29:56;6.40;99.90
52211;DHT22;38179;52.756;6.906;2023-04-30T05:32:22;6.40;99.90
52211;DHT22;38179;52.756;6.906;2023-04-30T05:34:48;6.40;99.90
52211;DHT22;38179;52.756;6.906;2023-04-30T05:37:14;6.50;99.90
52211;DHT22;38179;52.756;6.906;2023-04-30T05:39:42;6.50;99.90
52211;DHT22;38179;52.756;6.906;2023-04-30T05:42:07;6.50;99.90
52211;DHT22;38179;52.756;6.906;2023-04-30T05:44:33;6.60;99.90
52211;DHT22;38179;52.756;6.906;2023-04-30T05:46:59;6.60;99.90
52211;DHT22;38179;52.756;6.906;2023-04-30T05:49:25;6.70;99.90
52211;DHT22;38179;52.756;6.906;2023-04-30T05:51:51;6.70;99.90
52211;DHT22;38179;52.756;6.906;2023-04-30T05:54:17;6.70;99.90
52211;DHT22;38179;52.756;6.906;2023-04-30T05:56:43;6.70;99.90
52211;DHT22;38179;52.756;6.906;2023-04-30T05:59:08;6.70;99.90
52211;DHT22;38179;52.756;6.906;2023-04-30T06:01:34;6.70;99.90
52211;DHT22;38179;52.756;6.906;2023-04-30T06:04:00;6.80;99.90
52211;DHT22;38179;52.756;6.906;2023-04-30T06:06:26;6.80;99.90
52211;DHT22;38179;52.756;6.906;2023-04-30T06:08:52;6.90;99.90
52211;DHT22;38179;52.756;6.906;2023-04-30T06:11:18;6.90;99.90
52211;DHT22;38179;52.756;6.906;2023-04-30T06:13:46;7.00;99.90
52211;DHT22;38179;52.756;6.906;2023-04-30T06:16:11;7.00;99.90
52211;DHT22;38179;52.756;6.906;2023-04-30T06:18:37;7.10;99.90
52211;DHT22;38179;52.756;6.906;2023-04-30T06:21:03;7.10;99.90
52211;DHT22;38179;52.756;6.906;2023-04-30T06:23:29;7.10;99.90
52211;DHT22;38179;52.756;6.906;2023-04-30T06:25:54;7.10;99.90
52211;DHT22;38179;52.756;6.906;2023-04-30T06:28:20;7.20;99.90
52211;DHT22;38179;52.756;6.906;2023-04-30T06:30:46;7.30;99.90
52211;DHT22;38179;52.756;6.906;2023-04-30T06:33:12;7.30;99.90
52211;DHT22;38179;52.756;6.906;2023-04-30T06:35:38;7.40;99.90
52211;DHT22;38179;52.756;6.906;2023-04-30T06:38:04;7.40;99.90
52211;DHT22;38179;52.756;6.906;2023-04-30T06:40:30;7.40;99.90
52211;DHT22;38179;52.756;6.906;2023-04-30T06:42:56;7.50;99.90
52211;DHT22;38179;52.756;6.906;2023-04-30T06:45:22;7.60;99.90
52211;DHT22;38179;52.756;6.906;2023-04-30T06:47:47;7.60;99.90
52211;DHT22;38179;52.756;6.906;2023-04-30T06:50:13;7.70;99.90
52211;DHT22;38179;52.756;6.906;2023-04-30T06:52:40;7.70;99.90
52211;DHT22;38179;52.756;6.906;2023-04-30T06:55:06;7.80;99.90
52211;DHT22;38179;52.756;6.906;2023-04-30T06:57:33;7.90;99.90
52211;DHT22;38179;52.756;6.906;2023-04-30T06:59:59;7.90;99.90
52211;DHT22;38179;52.756;6.906;2023-04-30T07:02:24;8.00;99.90
52211;DHT22;38179;52.756;6.906;2023-04-30T07:04:50;8.00;99.90
52211;DHT22;38179;52.756;6.906;2023-04-30T07:07:16;8.00;99.90
52211;DHT22;38179;52.756;6.906;2023-04-30T07:09:42;8.00;99.90
52211;DHT22;38179;52.756;6.906;2023-04-30T07:12:07;8.10;99.90
52211;DHT22;38179;52.756;6.906;2023-04-30T07:14:35;8.10;99.90
52211;DHT22;38179;52.756;6.906;2023-04-30T07:17:01;8.20;99.90
52211;DHT22;38179;52.756;6.906;2023-04-30T07:19:26;8.30;99.90
52211;DHT22;38179;52.756;6.906;2023-04-30T07:21:53;8.30;99.90
52211;DHT22;38179;52.756;6.906;2023-04-30T07:24:18;8.30;99.90
52211;DHT22;38179;52.756;6.906;2023-04-30T07:26:44;8.30;99.90
52211;DHT22;38179;52.756;6.906;2023-04-30T07:29:10;8.30;99.90
52211;DHT22;38179;52.756;6.906;2023-04-30T07:31:36;8.40;99.90
52211;DHT22;38179;52.756;6.906;2023-04-30T07:34:02;8.50;99.90
52211;DHT22;38179;52.756;6.906;2023-04-30T07:36:27;8.50;99.90
52211;DHT22;38179;52.756;6.906;2023-04-30T07:38:53;8.50;99.90
52211;DHT22;38179;52.756;6.906;2023-04-30T07:41:19;8.50;99.90
52211;DHT22;38179;52.756;6.906;2023-04-30T07:43:45;8.60;99.90
52211;DHT22;38179;52.756;6.906;2023-04-30T07:46:10;8.60;99.90
52211;DHT22;38179;52.756;6.906;2023-04-30T07:48:36;8.60;99.90
52211;DHT22;38179;52.756;6.906;2023-04-30T07:51:02;8.80;99.90
52211;DHT22;38179;52.756;6.906;2023-04-30T07:53:29;8.80;99.90
52211;DHT22;38179;52.756;6.906;2023-04-30T07:55:55;8.90;99.90
52211;DHT22;38179;52.756;6.906;2023-04-30T07:58:20;8.90;99.90
52211;DHT22;38179;52.756;6.906;2023-04-30T08:00:46;8.90;99.90
52211;DHT22;38179;52.756;6.906;2023-04-30T08:03:12;9.00;99.90
52211;DHT22;38179;52.756;6.906;2023-04-30T08:05:38;9.00;99.90
52211;DHT22;38179;52.756;6.906;2023-04-30T08:08:03;9.10;99.90
52211;DHT22;38179;52.756;6.906;2023-04-30T08:10:30;9.10;99.90
52211;DHT22;38179;52.756;6.906;2023-04-30T08:12:56;9.20;99.90
52211;DHT22;38179;52.756;6.906;2023-04-30T08:15:22;9.30;99.90
52211;DHT22;38179;52.756;6.906;2023-04-30T08:17:48;9.30;99.90
52211;DHT22;38179;52.756;6.906;2023-04-30T08:20:14;9.30;99.90
52211;DHT22;38179;52.756;6.906;2023-04-30T08:22:40;9.30;99.90
52211;DHT22;38179;52.756;6.906;2023-04-30T08:25:06;9.40;99.90
52211;DHT22;38179;52.756;6.906;2023-04-30T08:27:32;9.40;99.90
52211;DHT22;38179;52.756;6.906;2023-04-30T08:29:58;9.60;99.90
52211;DHT22;38179;52.756;6.906;2023-04-30T08:32:23;9.60;99.90
52211;DHT22;38179;52.756;6.906;2023-04-30T08:34:49;9.70;99.90
52211;DHT22;38179;52.756;6.906;2023-04-30T08:37:16;9.80;99.90
52211;DHT22;38179;52.756;6.906;2023-04-30T08:39:41;9.70;99.90
52211;DHT22;38179;52.756;6.906;2023-04-30T08:42:07;9.70;99.90
52211;DHT22;38179;52.756;6.906;2023-04-30T08:44:33;9.70;99.90
52211;DHT22;38179;52.756;6.906;2023-04-30T08:47:00;9.80;99.90
52211;DHT22;38179;52.756;6.906;2023-04-30T08:49:28;9.80;99.90
52211;DHT22;38179;52.756;6.906;2023-04-30T08:51:57;9.80;99.90
52211;DHT22;38179;52.756;6.906;2023-04-30T08:54:24;9.80;99.90
52211;DHT22;38179;52.756;6.906;2023-04-30T08:56:50;9.80;99.90
52211;DHT22;38179;52.756;6.906;2023-04-30T08:59:16;10.00;99.90
52211;DHT22;38179;52.756;6.906;2023-04-30T09:01:42;10.00;99.90
52211;DHT22;38179;52.756;6.906;2023-04-30T09:04:07;10.00;99.90
52211;DHT22;38179;52.756;6.906;2023-04-30T09:06:33;10.00;99.90
52211;DHT22;38179;52.756;6.906;2023-04-30T09:09:07;10.00;99.90
52211;DHT22;38179;52.756;6.906;2023-04-30T09:11:33;10.10;99.90
52211;DHT22;38179;52.756;6.906;2023-04-30T09:14:00;10.20;99.90
52211;DHT22;38179;52.756;6.906;2023-04-30T09:16:26;10.40;99.90
52211;DHT22;38179;52.756;6.906;2023-04-30T09:18:55;10.50;99.90
52211;DHT22;38179;52.756;6.906;2023-04-30T09:21:31;10.40;99.90
52211;DHT22;38179;52.756;6.906;2023-04-30T09:23:57;10.40;99.90
52211;DHT22;38179;52.756;6.906;2023-04-30T09:26:29;10.50;99.90
52211;DHT22;38179;52.756;6.906;2023-04-30T09:28:56;10.50;99.90
52211;DHT22;38179;52.756;6.906;2023-04-30T09:31:22;10.60;99.90
52211;DHT22;38179;52.756;6.906;2023-04-30T09:33:52;10.60;99.90
52211;DHT22;38179;52.756;6.906;2023-04-30T09:36:18;10.60;99.90
52211;DHT22;38179;52.756;6.906;2023-04-30T09:38:44;10.70;99.90
52211;DHT22;38179;52.756;6.906;2023-04-30T09:44:06;10.80;99.90
52211;DHT22;38179;52.756;6.906;2023-04-30T09:46:33;10.90;99.90
52211;DHT22;38179;52.756;6.906;2023-04-30T09:49:00;11.00;99.90
52211;DHT22;38179;52.756;6.906;2023-04-30T09:51:26;11.10;99.90
52211;DHT22;38179;52.756;6.906;2023-04-30T09:53:53;11.30;99.90
52211;DHT22;38179;52.756;6.906;2023-04-30T09:56:19;11.30;99.90
52211;DHT22;38179;52.756;6.906;2023-04-30T09:58:47;11.30;99.90
52211;DHT22;38179;52.756;6.906;2023-04-30T10:01:14;11.30;99.90
52211;DHT22;38179;52.756;6.906;2023-04-30T10:03:41;11.40;99.90
52211;DHT22;38179;52.756;6.906;2023-04-30T10:06:07;11.40;99.90
52211;DHT22;38179;52.756;6.906;2023-04-30T10:08:41;11.40;99.90
52211;DHT22;38179;52.756;6.906;2023-04-30T10:11:07;11.50;99.90
52211;DHT22;38179;52.756;6.906;2023-04-30T10:14:07;11.60;99.90
52211;DHT22;38179;52.756;6.906;2023-04-30T10:16:36;11.70;99.90
52211;DHT22;38179;52.756;6.906;2023-04-30T10:19:06;11.70;99.90
52211;DHT22;38179;52.756;6.906;2023-04-30T10:21:34;11.80;99.90
52211;DHT22;38179;52.756;6.906;2023-04-30T10:24:04;11.80;99.90
52211;DHT22;38179;52.756;6.906;2023-04-30T10:26:30;11.90;99.90
52211;DHT22;38179;52.756;6.906;2023-04-30T10:28:56;12.00;99.90
52211;DHT22;38179;52.756;6.906;2023-04-30T10:31:25;12.10;99.90
52211;DHT22;38179;52.756;6.906;2023-04-30T10:38:57;12.40;99.90
52211;DHT22;38179;52.756;6.906;2023-04-30T10:41:25;12.50;99.90
52211;DHT22;38179;52.756;6.906;2023-04-30T10:43:51;12.40;99.90
52211;DHT22;38179;52.756;6.906;2023-04-30T10:46:22;12.40;99.90
52211;DHT22;38179;52.756;6.906;2023-04-30T10:48:48;12.30;99.90
52211;DHT22;38179;52.756;6.906;2023-04-30T10:51:14;12.50;99.90
52211;DHT22;38179;52.756;6.906;2023-04-30T10:53:40;12.50;99.90
52211;DHT22;38179;52.756;6.906;2023-04-30T10:56:09;12.50;99.90
52211;DHT22;38179;52.756;6.906;2023-04-30T10:58:36;12.60;99.90
52211;DHT22;38179;52.756;6.906;2023-04-30T11:01:04;12.70;99.90
52211;DHT22;38179;52.756;6.906;2023-04-30T11:03:30;12.80;99.90
52211;DHT22;38179;52.756;6.906;2023-04-30T11:05:57;12.90;99.90
52211;DHT22;38179;52.756;6.906;2023-04-30T11:08:31;12.90;99.90
52211;DHT22;38179;52.756;6.906;2023-04-30T11:10:58;13.00;99.90
52211;DHT22;38179;52.756;6.906;2023-04-30T11:13:28;13.10;99.90
52211;DHT22;38179;52.756;6.906;2023-04-30T11:16:00;13.10;99.90
52211;DHT22;38179;52.756;6.906;2023-04-30T11:18:26;13.10;99.90
52211;DHT22;38179;52.756;6.906;2023-04-30T11:20:52;13.20;99.90
52211;DHT22;38179;52.756;6.906;2023-04-30T11:23:21;13.20;99.90
52211;DHT22;38179;52.756;6.906;2023-04-30T11:25:47;13.30;99.90
52211;DHT22;38179;52.756;6.906;2023-04-30T11:30:40;13.20;99.90
52211;DHT22;38179;52.756;6.906;2023-04-30T11:33:06;13.30;99.90
52211;DHT22;38179;52.756;6.906;2023-04-30T11:35:32;13.30;99.90
52211;DHT22;38179;52.756;6.906;2023-04-30T11:37:58;13.40;99.90
52211;DHT22;38179;52.756;6.906;2023-04-30T11:40:24;13.50;99.90
52211;DHT22;38179;52.756;6.906;2023-04-30T11:42:51;13.40;99.90
52211;DHT22;38179;52.756;6.906;2023-04-30T11:45:16;13.60;99.90
52211;DHT22;38179;52.756;6.906;2023-04-30T11:50:14;13.70;99.90
52211;DHT22;38179;52.756;6.906;2023-04-30T11:52:41;13.70;99.90
52211;DHT22;38179;52.756;6.906;2023-04-30T11:55:11;13.70;99.90
52211;DHT22;38179;52.756;6.906;2023-04-30T11:57:38;13.70;99.90
52211;DHT22;38179;52.756;6.906;2023-04-30T12:00:09;13.80;99.90
52211;DHT22;38179;52.756;6.906;2023-04-30T12:02:35;13.90;99.90
52211;DHT22;38179;52.756;6.906;2023-04-30T12:05:01;14.00;99.90
52211;DHT22;38179;52.756;6.906;2023-04-30T12:07:26;14.10;99.90
52211;DHT22;38179;52.756;6.906;2023-04-30T12:09:54;14.20;99.90
52211;DHT22;38179;52.756;6.906;2023-04-30T12:12:27;14.20;99.90
52211;DHT22;38179;52.756;6.906;2023-04-30T12:14:52;14.30;99.90
52211;DHT22;38179;52.756;6.906;2023-04-30T12:17:31;14.40;99.90
52211;DHT22;38179;52.756;6.906;2023-04-30T12:19:58;14.40;99.90
52211;DHT22;38179;52.756;6.906;2023-04-30T12:22:23;14.50;99.90
52211;DHT22;38179;52.756;6.906;2023-04-30T12:24:49;14.40;99.90
52211;DHT22;38179;52.756;6.906;2023-04-30T12:27:15;14.50;99.90
52211;DHT22;38179;52.756;6.906;2023-04-30T12:29:44;14.50;99.90
52211;DHT22;38179;52.756;6.906;2023-04-30T12:32:11;14.60;99.90
52211;DHT22;38179;52.756;6.906;2023-04-30T12:34:40;14.70;99.90
52211;DHT22;38179;52.756;6.906;2023-04-30T12:37:06;14.90;99.90
52211;DHT22;38179;52.756;6.906;2023-04-30T12:39:33;14.90;99.90
52211;DHT22;38179;52.756;6.906;2023-04-30T12:41:59;15.10;99.90
52211;DHT22;38179;52.756;6.906;2023-04-30T12:44:26;15.10;99.90
52211;DHT22;38179;52.756;6.906;2023-04-30T12:46:54;15.10;99.90
52211;DHT22;38179;52.756;6.906;2023-04-30T12:49:25;15.10;99.90
52211;DHT22;38179;52.756;6.906;2023-04-30T12:52:13;15.10;99.90
52211;DHT22;38179;52.756;6.906;2023-04-30T12:54:38;15.20;99.90
52211;DHT22;38179;52.756;6.906;2023-04-30T12:59:30;15.20;99.90
52211;DHT22;38179;52.756;6.906;2023-04-30T13:04:34;15.30;99.90
52211;DHT22;38179;52.756;6.906;2023-04-30T13:07:01;15.40;99.90
52211;DHT22;38179;52.756;6.906;2023-04-30T13:09:27;15.50;99.90
52211;DHT22;38179;52.756;6.906;2023-04-30T13:11:53;15.60;99.90
52211;DHT22;38179;52.756;6.906;2023-04-30T13:14:18;15.70;99.90
52211;DHT22;38179;52.756;6.906;2023-04-30T13:16:44;15.60;99.90
52211;DHT22;38179;52.756;6.906;2023-04-30T13:19:10;15.60;99.90
52211;DHT22;38179;52.756;6.906;2023-04-30T13:21:36;15.60;99.90
52211;DHT22;38179;52.756;6.906;2023-04-30T13:24:02;15.80;99.90
52211;DHT22;38179;52.756;6.906;2023-04-30T13:26:28;16.00;99.90
52211;DHT22;38179;52.756;6.906;2023-04-30T13:28:54;16.20;99.90
52211;DHT22;38179;52.756;6.906;2023-04-30T13:31:20;16.40;99.90
52211;DHT22;38179;52.756;6.906;2023-04-30T13:33:46;16.60;99.90
52211;DHT22;38179;52.756;6.906;2023-04-30T13:36:12;16.70;99.90
52211;DHT22;38179;52.756;6.906;2023-04-30T13:38:38;16.90;99.90
52211;DHT22;38179;52.756;6.906;2023-04-30T13:41:04;16.80;99.90
52211;DHT22;38179;52.756;6.906;2023-04-30T13:43:30;16.90;99.90
52211;DHT22;38179;52.756;6.906;2023-04-30T13:45:57;16.80;99.90
52211;DHT22;38179;52.756;6.906;2023-04-30T13:48:26;16.90;99.90
52211;DHT22;38179;52.756;6.906;2023-04-30T13:50:52;16.70;99.90
52211;DHT22;38179;52.756;6.906;2023-04-30T13:53:18;16.80;99.90
52211;DHT22;38179;52.756;6.906;2023-04-30T13:55:44;16.80;99.90
52211;DHT22;38179;52.756;6.906;2023-04-30T13:58:09;16.90;99.90
52211;DHT22;38179;52.756;6.906;2023-04-30T14:00:35;16.90;99.90
52211;DHT22;38179;52.756;6.906;2023-04-30T14:03:01;17.10;99.90
52211;DHT22;38179;52.756;6.906;2023-04-30T14:05:27;17.10;99.90
52211;DHT22;38179;52.756;6.906;2023-04-30T14:07:53;17.20;99.90
52211;DHT22;38179;52.756;6.906;2023-04-30T14:10:19;17.20;99.90
52211;DHT22;38179;52.756;6.906;2023-04-30T14:12:44;17.30;99.90
52211;DHT22;38179;52.756;6.906;2023-04-30T14:15:10;17.20;99.90
52211;DHT22;38179;52.756;6.906;2023-04-30T14:17:36;17.40;99.90
52211;DHT22;38179;52.756;6.906;2023-04-30T14:20:02;17.50;99.90
52211;DHT22;38179;52.756;6.906;2023-04-30T14:22:29;17.70;99.90
52211;DHT22;38179;52.756;6.906;2023-04-30T14:24:58;17.60;99.90
52211;DHT22;38179;52.756;6.906;2023-04-30T14:27:24;17.50;99.90
52211;DHT22;38179;52.756;6.906;2023-04-30T14:29:50;17.40;99.90
52211;DHT22;38179;52.756;6.906;2023-04-30T14:32:16;17.40;99.90
52211;DHT22;38179;52.756;6.906;2023-04-30T14:34:42;17.50;99.90
52211;DHT22;38179;52.756;6.906;2023-04-30T14:37:08;17.40;99.90
52211;DHT22;38179;52.756;6.906;2023-04-30T14:39:34;17.50;99.90
52211;DHT22;38179;52.756;6.906;2023-04-30T14:42:01;17.50;99.90
52211;DHT22;38179;52.756;6.906;2023-04-30T14:44:27;17.50;99.90
52211;DHT22;38179;52.756;6.906;2023-04-30T14:46:54;17.60;99.90
52211;DHT22;38179;52.756;6.906;2023-04-30T14:49:20;17.80;99.90
52211;DHT22;38179;52.756;6.906;2023-04-30T14:51:46;17.80;99.90
52211;DHT22;38179;52.756;6.906;2023-04-30T14:54:22;17.90;99.90
52211;DHT22;38179;52.756;6.906;2023-04-30T14:56:48;17.60;99.90
52211;DHT22;38179;52.756;6.906;2023-04-30T14:59:14;17.40;99.90
52211;DHT22;38179;52.756;6.906;2023-04-30T15:01:40;17.60;99.90
52211;DHT22;38179;52.756;6.906;2023-04-30T15:04:06;17.70;99.90
52211;DHT22;38179;52.756;6.906;2023-04-30T15:06:32;17.70;99.90
52211;DHT22;38179;52.756;6.906;2023-04-30T15:08:58;17.90;99.90
52211;DHT22;38179;52.756;6.906;2023-04-30T15:11:25;18.00;99.90
52211;DHT22;38179;52.756;6.906;2023-04-30T15:13:52;18.20;99.90
52211;DHT22;38179;52.756;6.906;2023-04-30T15:16:19;17.90;99.90
52211;DHT22;38179;52.756;6.906;2023-04-30T15:18:45;18.10;99.90
52211;DHT22;38179;52.756;6.906;2023-04-30T15:21:11;18.20;99.90
52211;DHT22;38179;52.756;6.906;2023-04-30T15:23:37;18.00;99.90
52211;DHT22;38179;52.756;6.906;2023-04-30T15:26:03;18.20;99.90
52211;DHT22;38179;52.756;6.906;2023-04-30T15:28:32;18.30;99.90
52211;DHT22;38179;52.756;6.906;2023-04-30T15:30:58;18.30;99.90
52211;DHT22;38179;52.756;6.906;2023-04-30T15:33:29;18.30;99.90
52211;DHT22;38179;52.756;6.906;2023-04-30T15:35:56;18.20;99.90
52211;DHT22;38179;52.756;6.906;2023-04-30T15:38:22;18.00;99.90
52211;DHT22;38179;52.756;6.906;2023-04-30T15:40:48;18.00;99.90
52211;DHT22;38179;52.756;6.906;2023-04-30T15:43:14;17.80;99.90
52211;DHT22;38179;52.756;6.906;2023-04-30T15:45:41;17.80;99.90
52211;DHT22;38179;52.756;6.906;2023-04-30T15:48:07;17.70;99.90
52211;DHT22;38179;52.756;6.906;2023-04-30T15:50:33;17.80;99.90
52211;DHT22;38179;52.756;6.906;2023-04-30T15:52:59;17.90;99.90
52211;DHT22;38179;52.756;6.906;2023-04-30T15:55:25;18.00;99.90
52211;DHT22;38179;52.756;6.906;2023-04-30T15:57:51;18.10;99.90
52211;DHT22;38179;52.756;6.906;2023-04-30T16:00:17;18.20;99.90
52211;DHT22;38179;52.756;6.906;2023-04-30T16:02:42;18.30;99.90
52211;DHT22;38179;52.756;6.906;2023-04-30T16:05:08;18.40;99.90
52211;DHT22;38179;52.756;6.906;2023-04-30T16:07:35;18.30;99.90
52211;DHT22;38179;52.756;6.906;2023-04-30T16:10:00;18.40;99.90
52211;DHT22;38179;52.756;6.906;2023-04-30T16:12:27;18.30;99.90
52211;DHT22;38179;52.756;6.906;2023-04-30T16:14:55;18.30;99.90
52211;DHT22;38179;52.756;6.906;2023-04-30T16:17:21;18.20;99.90